createdAt,value
2023-05-07T00:03:15.149Z,0.22
2023-05-07T00:08:37.043Z,0.20
2023-05-07T00:13:58.934Z,0.20
2023-05-07T00:19:20.892Z,0.30
2023-05-07T00:24:42.651Z,0.25
2023-05-07T00:30:04.742Z,0.20
2023-05-07T00:35:26.664Z,0.20
2023-05-07T00:40:48.472Z,0.40
2023-05-07T00:46:11.407Z,0.20
2023-05-07T00:51:34.391Z,0.43
2023-05-07T00:56:56.531Z,0.47
2023-05-07T01:02:18.558Z,0.47
2023-05-07T01:07:42.201Z,0.30
2023-05-07T01:13:04.623Z,0.65
2023-05-07T01:18:27.840Z,0.40
2023-05-07T01:23:50.213Z,0.50
2023-05-07T01:29:12.238Z,0.40
2023-05-07T01:34:37.465Z,0.40
2023-05-07T01:39:59.750Z,0.35
2023-05-07T01:45:25.119Z,0.40
2023-05-07T01:50:48.410Z,0.40
2023-05-07T01:56:10.180Z,0.50
2023-05-07T02:01:32.171Z,0.30
2023-05-07T02:06:54.109Z,0.20
2023-05-07T02:12:16.048Z,0.20
2023-05-07T02:17:58.676Z,0.40
2023-05-07T02:23:20.574Z,0.20
2023-05-07T02:28:42.401Z,0.30
2023-05-07T02:34:05.113Z,0.20
2023-05-07T02:39:26.989Z,0.20
2023-05-07T02:44:48.794Z,0.20
2023-05-07T02:50:11.172Z,0.20
2023-05-07T02:55:33.303Z,0.50
2023-05-07T03:00:58.409Z,0.40
2023-05-07T03:06:20.347Z,0.20
2023-05-07T03:11:42.120Z,0.32
2023-05-07T03:17:04.046Z,0.22
2023-05-07T03:22:25.867Z,0.30
2023-05-07T03:27:47.746Z,0.20
2023-05-07T03:33:09.512Z,0.10
2023-05-07T03:38:31.312Z,0.20
2023-05-07T03:43:53.173Z,0.10
2023-05-07T03:49:14.958Z,0.30
2023-05-07T03:54:36.892Z,0.20
2023-05-07T03:59:58.792Z,0.20
2023-05-07T04:05:20.620Z,0.20
2023-05-07T04:10:42.447Z,0.30
2023-05-07T04:16:06.374Z,0.30
2023-05-07T04:21:28.214Z,0.30
2023-05-07T04:26:50.053Z,0.20
2023-05-07T04:32:11.954Z,0.28
2023-05-07T04:37:34.165Z,0.30
2023-05-07T04:42:56.550Z,0.30
2023-05-07T04:48:20.407Z,0.32
2023-05-07T04:53:42.723Z,0.25
2023-05-07T04:59:04.520Z,0.50
2023-05-07T05:04:26.993Z,0.20
2023-05-07T05:09:48.844Z,0.20
2023-05-07T05:15:12.475Z,0.15
2023-05-07T05:20:34.497Z,0.10
2023-05-07T05:26:00.147Z,0.13
2023-05-07T05:31:22.605Z,0.13
2023-05-07T05:36:45.100Z,0.20
2023-05-07T05:42:07.043Z,0.55
2023-05-07T05:47:28.857Z,0.40
2023-05-07T05:52:50.804Z,0.30
2023-05-07T05:58:12.738Z,0.20
2023-05-07T06:03:34.685Z,0.10
2023-05-07T06:08:56.604Z,0.10
2023-05-07T06:14:18.499Z,0.28
2023-05-07T06:19:40.297Z,0.10
2023-05-07T06:25:02.369Z,0.10
2023-05-07T06:30:24.204Z,0.10
2023-05-07T06:35:46.223Z,0.20
2023-05-07T06:41:08.530Z,0.20
2023-05-07T06:46:30.602Z,0.20
2023-05-07T06:51:52.452Z,0.20
2023-05-07T06:57:14.228Z,0.30
2023-05-07T07:02:36.194Z,0.40
2023-05-07T07:07:58.079Z,0.20
2023-05-07T07:13:20.582Z,0.20
2023-05-07T07:18:42.430Z,0.20
2023-05-07T07:24:04.529Z,0.20
2023-05-07T07:29:27.926Z,0.20
2023-05-07T07:34:49.953Z,0.20
2023-05-07T07:40:13.291Z,0.40
2023-05-07T07:45:36.131Z,0.20
2023-05-07T07:50:58.047Z,0.10
2023-05-07T07:56:19.802Z,0.30
2023-05-07T08:01:41.590Z,0.10
2023-05-07T08:07:03.531Z,0.30
2023-05-07T08:12:25.556Z,0.70
2023-05-07T08:17:47.472Z,0.80
2023-05-07T08:23:09.415Z,1.10
2023-05-07T08:28:31.306Z,1.40
2023-05-07T08:33:53.106Z,1.70
2023-05-07T08:39:17.380Z,1.80
2023-05-07T08:44:40.011Z,1.85
2023-05-07T08:50:03.314Z,1.70
2023-05-07T08:55:25.943Z,1.70
2023-05-07T09:00:48.587Z,2.03
2023-05-07T09:06:10.329Z,1.90
2023-05-07T09:11:32.270Z,2.47
2023-05-07T09:16:55.007Z,2.00
2023-05-07T09:22:17.496Z,2.22
2023-05-07T09:27:39.354Z,2.58
2023-05-07T09:33:03.042Z,2.10
2023-05-07T09:38:25.185Z,2.63
2023-05-07T09:43:47.077Z,2.50
2023-05-07T09:49:15.339Z,3.05
2023-05-07T09:54:39.341Z,2.33
2023-05-07T10:00:04.055Z,2.58
2023-05-07T10:05:26.918Z,3.90
2023-05-07T10:10:50.380Z,3.60
2023-05-07T10:16:12.284Z,3.03
2023-05-07T10:21:58.237Z,3.65
2023-05-07T10:27:21.704Z,3.77
2023-05-07T10:32:56.596Z,3.33
2023-05-07T10:38:18.794Z,3.50
2023-05-07T10:43:45.454Z,3.83
2023-05-07T10:49:07.845Z,3.00
2023-05-07T10:54:29.663Z,3.38
2023-05-07T10:59:51.985Z,2.72
2023-05-07T11:05:23.736Z,3.22
2023-05-07T11:10:50.580Z,3.67
2023-05-07T11:16:26.387Z,3.90
2023-05-07T11:21:49.668Z,3.70
2023-05-07T11:27:11.715Z,3.03
2023-05-07T11:32:33.776Z,4.47
2023-05-07T11:38:01.814Z,5.18
2023-05-07T11:43:23.911Z,4.28
2023-05-07T11:48:45.908Z,5.88
2023-05-07T11:54:12.493Z,5.60
2023-05-07T11:59:41.618Z,6.63
2023-05-07T12:05:03.835Z,5.90
2023-05-07T12:10:26.221Z,6.07
2023-05-07T12:15:51.687Z,5.05
2023-05-07T12:26:39.507Z,5.15
2023-05-07T12:32:01.685Z,5.13
2023-05-07T12:37:29.061Z,5.10
2023-05-07T12:42:57.057Z,5.18
2023-05-07T12:48:21.145Z,4.88
2023-05-07T12:53:44.992Z,5.00
2023-05-07T12:59:06.854Z,3.75
2023-05-07T13:04:28.777Z,3.88
2023-05-07T13:09:50.642Z,3.38
2023-05-07T13:15:12.722Z,4.55
2023-05-07T13:20:34.635Z,3.60
2023-05-07T13:25:57.415Z,3.38
2023-05-07T13:31:19.391Z,3.70
2023-05-07T13:36:43.152Z,2.58
2023-05-07T13:42:05.015Z,2.58
2023-05-07T13:47:27.016Z,2.78
2023-05-07T13:52:52.062Z,2.65
2023-05-07T13:58:13.892Z,2.47
2023-05-07T14:03:36.437Z,2.28
2023-05-07T14:08:59.398Z,1.70
2023-05-07T14:14:21.305Z,1.70
2023-05-07T14:19:43.064Z,1.90
2023-05-07T14:25:07.160Z,1.70
2023-05-07T14:30:29.213Z,1.83
2023-05-07T14:35:51.388Z,1.45
2023-05-07T14:41:13.622Z,1.00
2023-05-07T14:46:35.497Z,1.30
2023-05-07T14:51:59.470Z,1.25
2023-05-07T14:57:21.331Z,1.20
2023-05-07T15:02:43.261Z,1.10
2023-05-07T15:08:05.305Z,0.90
2023-05-07T15:13:27.243Z,0.80
2023-05-07T15:18:49.911Z,1.02
2023-05-07T15:24:11.719Z,1.00
2023-05-07T15:29:33.581Z,0.82
2023-05-07T15:34:55.356Z,0.98
2023-05-07T15:40:17.626Z,0.75
2023-05-07T15:45:44.303Z,0.80
2023-05-07T15:51:08.028Z,0.80
2023-05-07T15:56:33.561Z,0.90
2023-05-07T16:01:55.704Z,0.98
2023-05-07T16:07:17.557Z,1.10
2023-05-07T16:12:39.426Z,1.30
2023-05-07T16:18:01.538Z,1.30
2023-05-07T16:23:23.351Z,1.27
2023-05-07T16:28:45.480Z,1.30
2023-05-07T16:34:07.755Z,1.23
2023-05-07T16:39:29.821Z,1.08
2023-05-07T16:44:51.626Z,1.20
2023-05-07T16:50:13.500Z,0.95
2023-05-07T16:55:39.572Z,1.10
2023-05-07T17:01:02.782Z,1.10
2023-05-07T17:06:24.595Z,1.23
2023-05-07T17:11:46.381Z,1.48
2023-05-07T17:17:08.250Z,1.83
2023-05-07T17:22:30.361Z,3.72
2023-05-07T17:27:52.497Z,5.03
2023-05-07T17:33:20.868Z,4.85
2023-05-07T17:38:43.935Z,4.50
2023-05-07T17:44:05.965Z,5.25
2023-05-07T17:49:28.022Z,6.15
2023-05-07T17:54:50.134Z,5.85
2023-05-07T18:00:12.881Z,7.43
2023-05-07T18:05:38.191Z,9.02
2023-05-07T18:11:00.974Z,9.00
2023-05-07T18:16:23.165Z,10.90
2023-05-07T18:21:44.966Z,9.45
2023-05-07T18:27:06.772Z,8.82
2023-05-07T18:32:28.553Z,7.75
2023-05-07T18:37:50.587Z,7.43
2023-05-07T18:43:12.459Z,7.20
2023-05-07T18:48:34.300Z,5.80
2023-05-07T18:53:56.115Z,6.90
2023-05-07T18:59:17.937Z,6.85
2023-05-07T19:04:40.529Z,8.20
2023-05-07T19:10:05.600Z,8.43
2023-05-07T19:15:27.943Z,7.45
2023-05-07T19:20:52.134Z,7.50
2023-05-07T19:26:16.447Z,7.05
2023-05-07T19:31:38.425Z,6.63
2023-05-07T19:37:00.335Z,6.40
2023-05-07T19:42:22.097Z,6.70
2023-05-07T19:47:43.926Z,6.32
2023-05-07T19:53:05.927Z,5.65
2023-05-07T19:58:27.690Z,5.68
2023-05-07T20:03:49.630Z,5.45
2023-05-07T20:09:13.278Z,4.20
2023-05-07T20:14:35.193Z,3.58
2023-05-07T20:19:57.010Z,3.17
2023-05-07T20:25:19.122Z,3.20
2023-05-07T20:30:41.015Z,2.80
2023-05-07T20:36:02.943Z,2.50
2023-05-07T20:41:28.020Z,2.47
2023-05-07T20:46:50.458Z,2.30
2023-05-07T20:52:12.254Z,1.90
2023-05-07T20:57:34.108Z,2.05
2023-05-07T21:02:56.153Z,2.08
2023-05-07T21:08:18.102Z,1.45
2023-05-07T21:13:39.844Z,1.70
2023-05-07T21:19:01.781Z,1.73
2023-05-07T21:24:24.847Z,1.10
2023-05-07T21:29:46.918Z,1.17
2023-05-07T21:35:08.948Z,1.13
2023-05-07T21:40:30.769Z,0.77
2023-05-07T21:45:52.690Z,0.82
2023-05-07T21:51:14.490Z,0.57
2023-05-07T21:56:36.281Z,0.95
2023-05-07T22:01:58.198Z,0.90
2023-05-07T22:07:20.071Z,0.80
2023-05-07T22:12:41.886Z,0.73
2023-05-07T22:18:03.893Z,0.52
2023-05-07T22:23:25.841Z,0.60
2023-05-07T22:28:47.621Z,0.50
2023-05-07T22:34:09.422Z,0.45
2023-05-07T22:39:34.570Z,0.43
2023-05-07T22:44:56.765Z,0.30
2023-05-07T22:50:18.663Z,0.40
2023-05-07T22:55:40.458Z,0.40
2023-05-07T23:01:02.696Z,0.47
2023-05-07T23:06:24.680Z,0.60
2023-05-07T23:11:46.468Z,0.40
2023-05-07T23:17:08.906Z,0.28
2023-05-07T23:22:30.736Z,0.22
2023-05-07T23:27:52.611Z,0.25
2023-05-07T23:33:14.415Z,0.30
2023-05-07T23:38:36.336Z,0.32
2023-05-07T23:43:58.124Z,0.20
2023-05-07T23:49:19.864Z,0.30
2023-05-07T23:54:41.970Z,0.20
